Time;durP1;ratioP1;P1;durP2;ratioP2;P2;SDS_P1;SDS_P2;PMS_P1;PMS_P2;Temp;Humidity;BMP_temperature;BMP_pressure;BME280_temperature;BME280_humidity;BME280_pressure;Samples;Min_cycle;Max_cycle;Signal;HPM_P1;HPM_P2
2022/10/04 00:00:24;;;;;;;;;;;10.50;99.90;;;;;;5091233;28;20385;-64
2022/10/04 00:02:58;;;;;;;;;;;10.50;99.90;;;;;;5091379;28;19973;-66
2022/10/04 00:05:26;;;;;;;;;;;10.40;99.90;;;;;;5084842;28;19958;-65
2022/10/04 00:07:55;;;;;;;;;;;10.40;99.90;;;;;;5089506;28;20041;-64
2022/10/04 00:10:24;;;;;;;;;;;10.20;99.90;;;;;;5085415;28;19981;-64
2022/10/04 00:12:53;;;;;;;;;;;10.20;99.90;;;;;;5085643;28;20110;-64
2022/10/04 00:15:25;;;;;;;;;;;10.10;99.90;;;;;;5084976;28;19958;-64
2022/10/04 00:18:00;;;;;;;;;;;10.10;99.90;;;;;;5086903;28;19961;-64
2022/10/04 00:20:46;;;;;;;;;;;10.20;99.90;;;;;;5085499;28;20589;-64
2022/10/04 00:23:28;;;;;;;;;;;10.20;99.90;;;;;;5091354;28;19965;-63
2022/10/04 00:25:57;;;;;;;;;;;10.30;99.90;;;;;;5091997;28;19968;-63
2022/10/04 00:28:29;;;;;;;;;;;10.40;99.90;;;;;;5091536;28;19968;-63
2022/10/04 00:31:12;;;;;;;;;;;10.50;99.90;;;;;;5091752;28;19968;-64
2022/10/04 00:33:40;;;;;;;;;;;10.40;99.90;;;;;;5091713;28;20142;-63
2022/10/04 00:36:23;;;;;;;;;;;10.40;99.90;;;;;;5091737;28;20465;-64
2022/10/04 00:39:02;;;;;;;;;;;10.40;99.90;;;;;;5088755;28;19972;-64
2022/10/04 00:41:34;;;;;;;;;;;10.40;99.90;;;;;;5089342;28;20449;-64
2022/10/04 00:44:03;;;;;;;;;;;10.40;99.90;;;;;;5089286;28;19974;-64
2022/10/04 00:46:33;;;;;;;;;;;10.40;99.90;;;;;;5091022;28;19972;-63
2022/10/04 00:49:02;;;;;;;;;;;10.30;99.90;;;;;;5092983;28;20584;-63
2022/10/04 00:51:32;;;;;;;;;;;10.20;99.90;;;;;;5093032;28;20346;-63
2022/10/04 00:54:03;;;;;;;;;;;10.20;99.90;;;;;;5093572;28;20463;-64
2022/10/04 00:56:34;;;;;;;;;;;10.20;99.90;;;;;;5091871;28;19973;-63
2022/10/04 00:59:05;;;;;;;;;;;10.20;99.90;;;;;;5089763;28;19972;-64
2022/10/04 01:01:36;;;;;;;;;;;10.10;99.90;;;;;;5094283;28;20426;-64
2022/10/04 01:04:05;;;;;;;;;;;10.10;99.90;;;;;;5094093;28;20038;-63
2022/10/04 01:06:34;;;;;;;;;;;10.10;99.90;;;;;;5092911;28;20329;-64
2022/10/04 01:09:03;;;;;;;;;;;10.10;99.90;;;;;;5093468;28;19970;-63
2022/10/04 01:11:35;;;;;;;;;;;10.00;99.90;;;;;;5092395;28;19966;-63
2022/10/04 01:14:05;;;;;;;;;;;9.90;99.90;;;;;;5092853;28;20069;-63
2022/10/04 01:16:35;;;;;;;;;;;10.00;99.90;;;;;;5094701;28;19962;-64
2022/10/04 01:19:18;;;;;;;;;;;9.70;99.90;;;;;;5091522;28;20057;-62
2022/10/04 01:21:46;;;;;;;;;;;9.60;99.90;;;;;;5091033;28;20427;-63
2022/10/04 01:24:21;;;;;;;;;;;9.50;99.90;;;;;;5092818;28;19962;-63
2022/10/04 01:26:48;;;;;;;;;;;9.40;99.90;;;;;;5093363;28;19962;-63
2022/10/04 01:29:17;;;;;;;;;;;9.20;99.90;;;;;;5092481;28;19958;-63
2022/10/04 01:31:46;;;;;;;;;;;9.20;99.90;;;;;;5088957;28;19968;-63
2022/10/04 01:34:15;;;;;;;;;;;9.10;99.90;;;;;;5092854;28;19962;-62
2022/10/04 01:36:46;;;;;;;;;;;9.20;99.90;;;;;;5092087;28;19966;-63
2022/10/04 01:39:14;;;;;;;;;;;9.30;99.90;;;;;;5090971;28;19962;-63
2022/10/04 01:41:46;;;;;;;;;;;9.40;99.90;;;;;;5092100;28;20326;-62
2022/10/04 01:44:19;;;;;;;;;;;9.60;99.90;;;;;;5092469;28;19964;-63
2022/10/04 01:46:47;;;;;;;;;;;9.70;99.90;;;;;;5090866;28;20479;-63
2022/10/04 01:49:18;;;;;;;;;;;9.80;99.90;;;;;;5089962;28;20478;-63
2022/10/04 01:51:49;;;;;;;;;;;9.80;99.90;;;;;;5086664;28;19964;-63
2022/10/04 01:54:18;;;;;;;;;;;9.90;99.90;;;;;;5091125;28;19962;-63
2022/10/04 01:56:49;;;;;;;;;;;9.80;99.90;;;;;;5086904;28;19958;-64
2022/10/04 01:59:21;;;;;;;;;;;9.80;99.90;;;;;;5091487;28;19962;-64
2022/10/04 02:01:50;;;;;;;;;;;9.90;99.90;;;;;;5087862;28;20346;-63
2022/10/04 02:04:19;;;;;;;;;;;9.90;99.90;;;;;;5091633;28;20024;-63
2022/10/04 02:06:52;;;;;;;;;;;9.90;99.90;;;;;;5088378;28;19969;-64
2022/10/04 02:09:23;;;;;;;;;;;9.80;99.90;;;;;;5091881;28;20004;-64
2022/10/04 02:11:53;;;;;;;;;;;9.70;99.90;;;;;;5089360;28;19962;-63
2022/10/04 02:14:22;;;;;;;;;;;9.60;99.90;;;;;;5072904;28;20434;-63
2022/10/04 02:16:52;;;;;;;;;;;9.40;99.90;;;;;;5090658;28;19963;-64
2022/10/04 02:19:21;;;;;;;;;;;9.40;99.90;;;;;;5088272;28;19982;-64
2022/10/04 02:21:49;;;;;;;;;;;9.30;99.90;;;;;;5088289;28;19963;-64
2022/10/04 02:24:17;;;;;;;;;;;9.30;99.90;;;;;;5089879;28;19962;-64
2022/10/04 02:26:49;;;;;;;;;;;9.20;99.90;;;;;;5092019;28;19966;-64
2022/10/04 02:29:18;;;;;;;;;;;8.90;99.90;;;;;;5091734;28;19966;-64
2022/10/04 02:34:33;;;;;;;;;;;8.80;99.90;;;;;;5090777;28;19958;-64
2022/10/04 02:37:02;;;;;;;;;;;8.80;99.90;;;;;;5091020;28;19958;-65
2022/10/04 02:39:32;;;;;;;;;;;8.70;99.90;;;;;;5086905;28;19958;-64
2022/10/04 02:42:03;;;;;;;;;;;8.80;99.90;;;;;;5090785;28;19962;-64
2022/10/04 02:44:36;;;;;;;;;;;8.90;99.90;;;;;;5089324;28;19964;-64
2022/10/04 02:47:07;;;;;;;;;;;9.00;99.90;;;;;;5091041;28;20431;-64
2022/10/04 02:49:38;;;;;;;;;;;9.10;99.90;;;;;;5088133;28;19959;-63
2022/10/04 02:52:07;;;;;;;;;;;9.10;99.90;;;;;;5090996;28;19966;-64
2022/10/04 02:54:37;;;;;;;;;;;9.00;99.90;;;;;;5089095;28;19958;-64
2022/10/04 02:57:05;;;;;;;;;;;9.20;99.90;;;;;;5090852;28;19962;-64
2022/10/04 02:59:34;;;;;;;;;;;9.30;99.90;;;;;;5089329;28;20447;-63
2022/10/04 03:02:02;;;;;;;;;;;9.20;99.90;;;;;;5092725;28;19961;-64
2022/10/04 03:04:32;;;;;;;;;;;9.20;99.90;;;;;;5091185;28;20044;-64
2022/10/04 03:07:01;;;;;;;;;;;9.10;99.90;;;;;;5091308;28;19966;-64
2022/10/04 03:09:28;;;;;;;;;;;8.90;99.90;;;;;;5089769;28;20427;-63
2022/10/04 03:11:57;;;;;;;;;;;9.00;99.90;;;;;;5090244;28;20344;-63
2022/10/04 03:14:26;;;;;;;;;;;9.00;99.90;;;;;;5090572;28;19962;-63
2022/10/04 03:16:57;;;;;;;;;;;9.10;99.90;;;;;;5092303;28;19966;-63
2022/10/04 03:19:26;;;;;;;;;;;9.10;99.90;;;;;;5090387;28;20451;-63
2022/10/04 03:21:55;;;;;;;;;;;9.10;99.90;;;;;;5089263;28;20028;-64
2022/10/04 03:24:25;;;;;;;;;;;9.20;99.90;;;;;;5089073;28;19988;-64
2022/10/04 03:26:54;;;;;;;;;;;9.30;99.90;;;;;;5088381;28;20352;-64
2022/10/04 03:29:23;;;;;;;;;;;9.40;99.90;;;;;;5089082;28;20314;-64
2022/10/04 03:31:52;;;;;;;;;;;9.50;99.90;;;;;;5088437;28;20356;-64
2022/10/04 03:34:22;;;;;;;;;;;9.40;99.90;;;;;;5085166;28;19985;-62
2022/10/04 03:36:55;;;;;;;;;;;9.20;99.90;;;;;;5087882;28;20442;-63
2022/10/04 03:39:27;;;;;;;;;;;9.10;99.90;;;;;;5090199;28;19969;-63
2022/10/04 03:41:57;;;;;;;;;;;9.00;99.90;;;;;;5087411;28;19970;-63
2022/10/04 03:44:25;;;;;;;;;;;8.90;99.90;;;;;;5085599;28;19958;-63
2022/10/04 03:46:52;;;;;;;;;;;9.00;99.90;;;;;;5089058;28;19966;-63
2022/10/04 03:49:30;;;;;;;;;;;9.00;99.90;;;;;;5087754;28;20411;-63
2022/10/04 03:51:58;;;;;;;;;;;9.10;99.90;;;;;;5081006;28;19985;-63
2022/10/04 03:54:27;;;;;;;;;;;9.10;99.90;;;;;;5087703;28;20424;-63
2022/10/04 03:56:55;;;;;;;;;;;9.20;99.90;;;;;;5085671;28;19962;-63
2022/10/04 03:59:24;;;;;;;;;;;9.20;99.90;;;;;;5091709;28;19962;-63
2022/10/04 04:02:00;;;;;;;;;;;9.20;99.90;;;;;;5091537;28;20070;-63
2022/10/04 04:04:34;;;;;;;;;;;9.30;99.90;;;;;;5071391;28;20411;-63
2022/10/04 04:07:03;;;;;;;;;;;9.40;99.90;;;;;;5070933;28;20057;-63
2022/10/04 04:09:36;;;;;;;;;;;9.40;99.90;;;;;;5071328;28;19962;-63
2022/10/04 04:12:06;;;;;;;;;;;9.40;99.90;;;;;;5071384;28;19966;-63
2022/10/04 04:14:34;;;;;;;;;;;9.50;99.90;;;;;;5077761;28;19984;-63
2022/10/04 04:17:17;;;;;;;;;;;9.50;99.90;;;;;;5077538;28;20354;-62
2022/10/04 04:19:46;;;;;;;;;;;9.30;99.90;;;;;;5069533;28;20015;-63
2022/10/04 04:22:15;;;;;;;;;;;9.30;99.90;;;;;;5068991;28;20049;-62
2022/10/04 04:24:43;;;;;;;;;;;9.30;99.90;;;;;;5069517;28;19966;-62
2022/10/04 04:27:13;;;;;;;;;;;9.30;99.90;;;;;;5065937;28;19963;-62
2022/10/04 04:29:44;;;;;;;;;;;9.40;99.90;;;;;;5065101;28;19965;-62
2022/10/04 04:32:16;;;;;;;;;;;9.40;99.90;;;;;;5068987;28;19962;-62
2022/10/04 04:34:51;;;;;;;;;;;9.40;99.90;;;;;;5070533;28;19962;-61
2022/10/04 04:37:19;;;;;;;;;;;9.40;99.90;;;;;;5068561;28;20329;-63
2022/10/04 04:39:51;;;;;;;;;;;9.30;99.90;;;;;;5067478;28;20069;-62
2022/10/04 04:42:20;;;;;;;;;;;9.30;99.90;;;;;;5068440;28;19966;-62
2022/10/04 04:44:49;;;;;;;;;;;9.10;99.90;;;;;;5063569;28;19970;-63
2022/10/04 04:47:22;;;;;;;;;;;8.90;99.90;;;;;;5066013;28;20053;-62
2022/10/04 04:49:51;;;;;;;;;;;8.90;99.90;;;;;;5070115;28;20385;-61
2022/10/04 04:52:21;;;;;;;;;;;8.90;99.90;;;;;;5072704;28;20053;-62
2022/10/04 04:54:48;;;;;;;;;;;8.80;99.90;;;;;;5071015;28;19962;-63
2022/10/04 04:57:17;;;;;;;;;;;8.80;99.90;;;;;;5070977;28;19976;-63
2022/10/04 04:59:46;;;;;;;;;;;8.70;99.90;;;;;;5074636;28;20001;-62
2022/10/04 05:02:27;;;;;;;;;;;8.80;99.90;;;;;;5070746;28;19985;-61
2022/10/04 05:07:50;;;;;;;;;;;9.00;99.90;;;;;;5081938;28;19959;-64
2022/10/04 05:10:22;;;;;;;;;;;9.10;99.90;;;;;;5068108;28;19963;-64
2022/10/04 05:12:50;;;;;;;;;;;9.20;99.90;;;;;;5061805;28;19974;-63
2022/10/04 05:15:18;;;;;;;;;;;9.30;99.90;;;;;;5059042;28;20344;-64
2022/10/04 05:17:46;;;;;;;;;;;9.40;99.90;;;;;;5057605;28;20404;-65
2022/10/04 05:20:14;;;;;;;;;;;9.40;99.90;;;;;;5056751;28;20455;-64
2022/10/04 05:22:45;;;;;;;;;;;9.20;99.90;;;;;;5054528;28;19975;-64
2022/10/04 05:25:17;;;;;;;;;;;9.00;99.90;;;;;;5058752;28;19975;-64
2022/10/04 05:27:45;;;;;;;;;;;8.80;99.90;;;;;;5047295;28;20311;-64
2022/10/04 05:30:19;;;;;;;;;;;8.70;99.90;;;;;;5048945;28;19968;-64
2022/10/04 05:32:50;;;;;;;;;;;8.50;99.90;;;;;;5048302;28;19975;-64
2022/10/04 05:35:19;;;;;;;;;;;8.30;99.90;;;;;;5048539;28;19975;-64
2022/10/04 05:38:00;;;;;;;;;;;8.20;99.90;;;;;;5048930;28;19990;-64
2022/10/04 05:40:33;;;;;;;;;;;8.10;99.90;;;;;;5061826;28;19967;-65
2022/10/04 05:43:02;;;;;;;;;;;8.00;99.90;;;;;;5067984;28;20013;-64
2022/10/04 05:45:30;;;;;;;;;;;8.00;99.90;;;;;;5061642;28;20449;-64
2022/10/04 05:48:00;;;;;;;;;;;7.90;99.90;;;;;;5061922;28;20515;-64
2022/10/04 05:50:29;;;;;;;;;;;7.80;99.90;;;;;;5067636;28;20322;-64
2022/10/04 05:53:08;;;;;;;;;;;7.80;99.90;;;;;;5067468;28;19972;-64
2022/10/04 05:55:42;;;;;;;;;;;7.80;99.90;;;;;;5067810;28;19974;-64
2022/10/04 05:58:25;;;;;;;;;;;7.80;99.90;;;;;;5067935;28;19968;-64
2022/10/04 06:01:02;;;;;;;;;;;7.80;99.90;;;;;;5067586;28;19972;-64
2022/10/04 06:03:38;;;;;;;;;;;7.80;99.90;;;;;;5068439;28;20002;-64
2022/10/04 06:06:12;;;;;;;;;;;7.80;99.90;;;;;;5073515;28;20414;-64
2022/10/04 06:08:44;;;;;;;;;;;7.90;99.90;;;;;;5087954;28;20390;-64
2022/10/04 06:11:21;;;;;;;;;;;7.90;99.90;;;;;;5087529;28;20356;-64
2022/10/04 06:14:04;;;;;;;;;;;7.90;99.90;;;;;;5087473;28;19968;-64
2022/10/04 06:16:40;;;;;;;;;;;7.90;99.90;;;;;;5059899;28;20093;-64
2022/10/04 06:19:14;;;;;;;;;;;7.90;99.90;;;;;;5055045;28;20490;-64
2022/10/04 06:21:55;;;;;;;;;;;8.00;99.90;;;;;;5054804;28;20443;-64
2022/10/04 06:24:24;;;;;;;;;;;8.10;99.90;;;;;;5054902;28;19971;-65
2022/10/04 06:26:58;;;;;;;;;;;8.10;99.90;;;;;;5054107;28;19972;-64
2022/10/04 06:29:28;;;;;;;;;;;8.20;99.90;;;;;;5054644;28;20008;-64
2022/10/04 06:32:11;;;;;;;;;;;8.30;99.90;;;;;;5054027;28;20357;-64
2022/10/04 06:34:59;;;;;;;;;;;8.30;99.90;;;;;;5054599;28;19967;-64
2022/10/04 06:37:38;;;;;;;;;;;8.30;99.90;;;;;;5069305;28;19975;-64
2022/10/04 06:40:25;;;;;;;;;;;8.30;99.90;;;;;;5073564;28;19974;-64
2022/10/04 06:43:03;;;;;;;;;;;8.30;99.90;;;;;;5072968;28;20007;-64
2022/10/04 06:45:37;;;;;;;;;;;8.30;99.90;;;;;;5063406;28;19972;-64
2022/10/04 06:48:25;;;;;;;;;;;8.40;99.90;;;;;;5054660;28;20415;-64
2022/10/04 06:50:55;;;;;;;;;;;8.40;99.90;;;;;;5054061;28;19974;-64
2022/10/04 06:53:26;;;;;;;;;;;8.40;99.90;;;;;;5053727;28;19972;-64
2022/10/04 06:56:08;;;;;;;;;;;8.40;99.90;;;;;;5054335;28;19974;-64
2022/10/04 06:58:44;;;;;;;;;;;8.50;99.90;;;;;;5067381;28;19978;-64
2022/10/04 07:01:17;;;;;;;;;;;8.50;99.90;;;;;;5053732;28;19976;-64
2022/10/04 07:03:47;;;;;;;;;;;8.60;99.90;;;;;;5053901;28;20000;-64
2022/10/04 07:06:23;;;;;;;;;;;8.70;99.90;;;;;;5054030;28;20413;-64
2022/10/04 07:08:51;;;;;;;;;;;8.80;99.90;;;;;;5054106;28;19968;-64
2022/10/04 07:11:22;;;;;;;;;;;8.90;99.90;;;;;;5053450;28;19976;-64
2022/10/04 07:13:55;;;;;;;;;;;9.00;99.90;;;;;;5054997;28;19968;-64
2022/10/04 07:16:29;;;;;;;;;;;9.20;99.90;;;;;;5063012;28;19972;-65
2022/10/04 07:19:00;;;;;;;;;;;9.20;99.90;;;;;;5057903;28;19983;-64
2022/10/04 07:21:33;;;;;;;;;;;9.40;99.90;;;;;;5053384;28;19968;-63
2022/10/04 07:24:02;;;;;;;;;;;9.50;99.90;;;;;;5053543;28;19972;-64
2022/10/04 07:26:33;;;;;;;;;;;9.60;99.90;;;;;;5053398;28;19968;-64
2022/10/04 07:29:22;;;;;;;;;;;9.70;99.90;;;;;;5052828;28;20054;-64
2022/10/04 07:31:52;;;;;;;;;;;9.80;99.90;;;;;;5053201;28;19974;-64
2022/10/04 07:34:26;;;;;;;;;;;9.90;99.90;;;;;;5053471;28;19972;-64
2022/10/04 07:36:54;;;;;;;;;;;10.00;99.90;;;;;;5053299;28;19968;-64
2022/10/04 07:39:24;;;;;;;;;;;10.00;99.90;;;;;;5053199;28;19968;-64
2022/10/04 07:41:53;;;;;;;;;;;10.10;99.90;;;;;;5052883;28;20062;-64
2022/10/04 07:44:31;;;;;;;;;;;10.20;99.90;;;;;;5058303;28;19974;-65
2022/10/04 07:47:01;;;;;;;;;;;10.30;99.90;;;;;;5057486;28;19968;-65
2022/10/04 07:49:36;;;;;;;;;;;10.40;99.90;;;;;;5053143;28;19974;-65
2022/10/04 07:52:24;;;;;;;;;;;10.50;99.90;;;;;;5052661;28;20386;-64
2022/10/04 07:54:56;;;;;;;;;;;10.60;99.90;;;;;;5068764;28;19978;-65
2022/10/04 07:57:29;;;;;;;;;;;10.80;99.90;;;;;;5071769;28;19968;-64
2022/10/04 08:00:02;;;;;;;;;;;10.80;99.90;;;;;;5071239;28;19967;-64
2022/10/04 08:02:38;;;;;;;;;;;10.90;99.90;;;;;;5072067;28;19972;-65
2022/10/04 08:05:12;;;;;;;;;;;11.00;99.90;;;;;;5072145;28;19972;-64
2022/10/04 08:07:45;;;;;;;;;;;11.10;99.90;;;;;;5051697;28;19975;-65
2022/10/04 08:10:16;;;;;;;;;;;11.40;99.90;;;;;;5052208;28;19968;-65
2022/10/04 08:12:49;;;;;;;;;;;11.50;99.90;;;;;;5052488;28;19968;-65
2022/10/04 08:15:35;;;;;;;;;;;11.60;99.90;;;;;;5058702;28;19968;-65
2022/10/04 08:18:16;;;;;;;;;;;11.70;99.90;;;;;;5062881;28;20014;-64
2022/10/04 08:20:47;;;;;;;;;;;11.90;99.90;;;;;;5052018;28;19968;-64
2022/10/04 08:23:21;;;;;;;;;;;12.10;99.90;;;;;;5052747;28;20041;-64
2022/10/04 08:25:54;;;;;;;;;;;12.20;99.90;;;;;;5052310;28;19990;-68
2022/10/04 08:31:23;;;;;;;;;;;12.50;99.90;;;;;;5051644;28;19976;-65
2022/10/04 08:34:08;;;;;;;;;;;12.70;99.90;;;;;;5052470;28;19998;-65
2022/10/04 08:36:43;;;;;;;;;;;12.80;99.90;;;;;;5051755;28;19968;-65
2022/10/04 08:39:19;;;;;;;;;;;12.90;99.90;;;;;;5052425;28;19972;-65
2022/10/04 08:42:05;;;;;;;;;;;13.10;99.90;;;;;;5051697;28;19972;-64
2022/10/04 08:44:51;;;;;;;;;;;13.10;99.90;;;;;;5059003;28;19967;-64
2022/10/04 08:47:32;;;;;;;;;;;13.00;99.90;;;;;;5056683;28;19967;-65
2022/10/04 08:50:10;;;;;;;;;;;13.00;99.90;;;;;;5051906;28;19972;-64
2022/10/04 08:52:57;;;;;;;;;;;13.20;99.90;;;;;;5052098;28;19968;-64
2022/10/04 08:55:43;;;;;;;;;;;13.30;99.90;;;;;;5051607;28;20437;-65
2022/10/04 08:58:25;;;;;;;;;;;13.50;99.90;;;;;;5050674;28;19971;-65
2022/10/04 09:00:57;;;;;;;;;;;13.60;99.90;;;;;;5051723;28;19972;-65
2022/10/04 09:03:44;;;;;;;;;;;13.80;99.90;;;;;;5051742;28;19978;-65
2022/10/04 09:06:24;;;;;;;;;;;14.10;99.90;;;;;;5050839;28;19978;-68
2022/10/04 09:09:11;;;;;;;;;;;14.30;99.90;;;;;;5051780;28;19972;-64
2022/10/04 09:11:49;;;;;;;;;;;14.50;99.90;;;;;;5051872;28;19968;-65
2022/10/04 09:14:41;;;;;;;;;;;14.40;99.90;;;;;;5056629;28;20348;-65
2022/10/04 09:17:18;;;;;;;;;;;14.50;99.90;;;;;;5031934;28;19968;-65
2022/10/04 09:19:54;;;;;;;;;;;14.60;99.90;;;;;;5051195;28;19999;-65
2022/10/04 09:22:48;;;;;;;;;;;14.80;99.90;;;;;;5052088;28;19971;-65
2022/10/04 09:25:34;;;;;;;;;;;15.10;99.90;;;;;;5051880;28;19973;-65
2022/10/04 09:28:12;;;;;;;;;;;15.30;99.90;;;;;;5050716;28;19972;-65
2022/10/04 09:30:45;;;;;;;;;;;15.70;99.90;;;;;;5051800;28;19976;-65
2022/10/04 09:33:20;;;;;;;;;;;15.80;99.90;;;;;;5051723;28;19969;-65
2022/10/04 09:35:55;;;;;;;;;;;16.10;99.90;;;;;;5064660;28;20421;-65
2022/10/04 09:38:34;;;;;;;;;;;16.20;99.90;;;;;;5070181;28;19972;-64
2022/10/04 09:41:11;;;;;;;;;;;16.40;99.90;;;;;;5070449;28;19978;-65
2022/10/04 09:44:03;;;;;;;;;;;16.70;99.90;;;;;;5071015;28;19968;-65
2022/10/04 09:46:46;;;;;;;;;;;16.80;99.90;;;;;;5062001;28;20403;-65
2022/10/04 09:49:31;;;;;;;;;;;17.00;99.90;;;;;;5059188;28;19970;-65
2022/10/04 09:52:14;;;;;;;;;;;17.00;99.90;;;;;;5056601;28;20074;-65
2022/10/04 09:54:53;;;;;;;;;;;17.10;99.90;;;;;;5068315;28;19978;-65
2022/10/04 09:57:26;;;;;;;;;;;17.50;99.90;;;;;;5054503;28;19974;-66
2022/10/04 10:00:01;;;;;;;;;;;17.70;99.90;;;;;;5054453;28;20358;-65
2022/10/04 10:02:43;;;;;;;;;;;17.80;99.90;;;;;;5054743;28;20368;-65
2022/10/04 10:05:29;;;;;;;;;;;17.90;99.90;;;;;;5054732;28;20147;-65
2022/10/04 10:08:00;;;;;;;;;;;18.10;99.90;;;;;;5054583;28;19971;-65
2022/10/04 10:13:39;;;;;;;;;;;17.90;99.90;;;;;;5055111;28;20443;-64
2022/10/04 10:16:12;;;;;;;;;;;17.70;99.90;;;;;;5057745;28;20076;-65
2022/10/04 10:18:48;;;;;;;;;;;17.50;99.90;;;;;;5059697;28;19974;-65
2022/10/04 10:21:39;;;;;;;;;;;17.50;99.90;;;;;;5054737;28;19967;-65
2022/10/04 10:24:24;;;;;;;;;;;17.50;99.90;;;;;;5054889;28;20359;-65
2022/10/04 10:26:57;;;;;;;;;;;17.60;99.90;;;;;;5068098;28;20439;-65
2022/10/04 10:29:36;;;;;;;;;;;17.60;99.90;;;;;;5073950;28;19972;-65
2022/10/04 10:32:25;;;;;;;;;;;17.30;99.90;;;;;;5073578;28;19975;-65
2022/10/04 10:35:11;;;;;;;;;;;17.00;99.90;;;;;;5073817;28;19984;-65
2022/10/04 10:37:45;;;;;;;;;;;17.10;99.90;;;;;;5073410;28;19966;-65
2022/10/04 10:40:22;;;;;;;;;;;17.30;99.90;;;;;;5073713;28;20431;-65
2022/10/04 10:43:02;;;;;;;;;;;17.50;99.90;;;;;;5073420;28;20061;-65
2022/10/04 10:45:37;;;;;;;;;;;17.70;99.90;;;;;;5071655;28;20069;-65
2022/10/04 10:48:08;;;;;;;;;;;17.90;99.90;;;;;;5058623;28;19973;-65
2022/10/04 10:50:58;;;;;;;;;;;18.20;99.90;;;;;;5054797;28;20331;-64
2022/10/04 10:53:41;;;;;;;;;;;18.50;99.90;;;;;;5069673;28;19970;-65
2022/10/04 10:56:28;;;;;;;;;;;18.90;99.90;;;;;;5072897;28;19966;-65
2022/10/04 10:59:10;;;;;;;;;;;19.30;99.90;;;;;;5073636;28;20041;-65
2022/10/04 11:01:46;;;;;;;;;;;19.60;99.90;;;;;;5073205;28;19972;-63
2022/10/04 11:04:27;;;;;;;;;;;20.10;99.90;;;;;;5073142;28;19970;-63
2022/10/04 11:07:08;;;;;;;;;;;20.60;99.90;;;;;;5072566;28;20506;-63
2022/10/04 11:09:47;;;;;;;;;;;21.10;99.90;;;;;;5073096;28;19973;-63
2022/10/04 11:12:21;;;;;;;;;;;21.40;99.90;;;;;;5072890;28;19968;-63
2022/10/04 11:15:30;;;;;;;;;;;21.40;99.90;;;;;;5066805;28;20449;-63
2022/10/04 11:18:08;;;;;;;;;;;21.50;99.90;;;;;;5059874;28;19966;-63
2022/10/04 11:20:58;;;;;;;;;;;21.30;99.90;;;;;;5053710;28;19974;-64
2022/10/04 11:23:36;;;;;;;;;;;21.40;99.90;;;;;;5053703;28;20073;-63
2022/10/04 11:26:22;;;;;;;;;;;21.70;99.90;;;;;;5066627;28;20049;-63
2022/10/04 11:28:55;;;;;;;;;;;21.50;99.90;;;;;;5072683;28;19973;-63
2022/10/04 11:31:52;;;;;;;;;;;21.80;99.90;;;;;;5072626;28;19978;-63
2022/10/04 11:34:34;;;;;;;;;;;22.00;99.90;;;;;;5072595;28;19973;-63
2022/10/04 11:37:07;;;;;;;;;;;22.30;99.90;;;;;;5072480;28;20417;-63
2022/10/04 11:39:54;;;;;;;;;;;22.40;99.90;;;;;;5072270;28;19966;-63
2022/10/04 11:42:28;;;;;;;;;;;22.50;99.90;;;;;;5072271;28;19973;-63
2022/10/04 11:45:05;;;;;;;;;;;22.50;99.90;;;;;;5063229;28;19973;-63
2022/10/04 11:47:39;;;;;;;;;;;22.30;99.90;;;;;;5060918;28;20474;-63
2022/10/04 11:50:22;;;;;;;;;;;22.30;99.90;;;;;;5052932;28;19984;-63
2022/10/04 11:53:08;;;;;;;;;;;22.60;99.90;;;;;;5044298;28;19983;-63
2022/10/04 11:55:53;;;;;;;;;;;22.20;99.90;;;;;;5053279;28;19967;-63
2022/10/04 11:58:25;;;;;;;;;;;22.20;99.90;;;;;;5066397;28;19970;-63
2022/10/04 12:01:12;;;;;;;;;;;22.50;99.90;;;;;;5071966;28;20065;-63
2022/10/04 12:03:55;;;;;;;;;;;22.80;99.90;;;;;;5077900;22;19974;-63
2022/10/04 12:06:34;;;;;;;;;;;23.20;99.90;;;;;;5054968;28;19971;-63
2022/10/04 12:09:04;;;;;;;;;;;23.30;99.90;;;;;;5052293;28;20448;-63
2022/10/04 12:14:42;;;;;;;;;;;23.80;99.90;;;;;;5044332;28;19971;-63
2022/10/04 12:17:26;;;;;;;;;;;23.90;99.90;;;;;;5049399;28;19974;-63
2022/10/04 12:20:00;;;;;;;;;;;23.60;99.70;;;;;;5051651;28;19978;-63
2022/10/04 12:22:49;;;;;;;;;;;23.70;99.90;;;;;;5051573;28;19978;-63
2022/10/04 12:25:47;;;;;;;;;;;23.70;99.70;;;;;;5047154;28;19972;-64
2022/10/04 12:28:26;;;;;;;;;;;23.70;99.90;;;;;;4969295;28;19980;-63
2022/10/04 12:31:00;;;;;;;;;;;23.60;99.90;;;;;;5022748;28;20410;-63
2022/10/04 12:33:33;;;;;;;;;;;23.50;99.90;;;;;;5032448;28;19976;-63
2022/10/04 12:36:05;;;;;;;;;;;23.60;99.90;;;;;;5032406;28;19973;-63
2022/10/04 12:38:44;;;;;;;;;;;24.10;99.90;;;;;;5032116;28;20023;-64
2022/10/04 12:41:19;;;;;;;;;;;24.50;99.60;;;;;;5032680;28;19975;-63
2022/10/04 12:43:55;;;;;;;;;;;25.00;99.30;;;;;;5032433;28;19975;-63
2022/10/04 12:46:28;;;;;;;;;;;25.30;98.90;;;;;;5034311;28;20011;-63
2022/10/04 12:49:05;;;;;;;;;;;25.50;98.40;;;;;;5035950;28;19965;-63
2022/10/04 12:51:37;;;;;;;;;;;25.80;97.40;;;;;;5032052;28;19964;-64
2022/10/04 12:54:11;;;;;;;;;;;25.90;97.10;;;;;;5026116;28;19973;-64
2022/10/04 12:56:45;;;;;;;;;;;25.80;96.90;;;;;;5026473;28;19972;-63
2022/10/04 12:59:34;;;;;;;;;;;25.70;96.70;;;;;;5032169;28;20357;-64
2022/10/04 13:02:14;;;;;;;;;;;25.60;96.60;;;;;;5027413;28;19993;-63
2022/10/04 13:04:47;;;;;;;;;;;25.10;97.50;;;;;;5046403;28;20382;-63
2022/10/04 13:07:24;;;;;;;;;;;25.10;96.70;;;;;;5051615;28;19975;-63
2022/10/04 13:09:58;;;;;;;;;;;24.90;96.90;;;;;;5046575;28;20009;-64
2022/10/04 13:13:09;;;;;;;;;;;24.90;97.50;;;;;;5052242;28;20443;-63
2022/10/04 13:15:39;;;;;;;;;;;24.50;98.20;;;;;;5056915;28;20072;-63
2022/10/04 13:18:31;;;;;;;;;;;24.60;97.80;;;;;;5069443;28;19979;-64
2022/10/04 13:21:00;;;;;;;;;;;25.10;98.10;;;;;;5070925;28;19970;-64
2022/10/04 13:23:39;;;;;;;;;;;25.40;97.90;;;;;;5071221;28;19973;-64
2022/10/04 13:26:15;;;;;;;;;;;25.60;97.00;;;;;;5070938;28;20054;-63
2022/10/04 13:28:46;;;;;;;;;;;25.10;96.40;;;;;;5072986;28;20067;-63
2022/10/04 13:31:23;;;;;;;;;;;25.00;97.00;;;;;;5074800;28;19963;-64
2022/10/04 13:33:55;;;;;;;;;;;25.00;96.40;;;;;;5074942;28;19968;-63
2022/10/04 13:36:26;;;;;;;;;;;25.10;96.50;;;;;;5074688;28;19983;-64
2022/10/04 13:39:08;;;;;;;;;;;25.40;96.70;;;;;;5074620;28;19974;-64
2022/10/04 13:41:46;;;;;;;;;;;25.00;96.10;;;;;;5074787;28;19968;-63
2022/10/04 13:44:25;;;;;;;;;;;24.10;97.10;;;;;;5070805;28;19968;-63
2022/10/04 13:47:03;;;;;;;;;;;23.80;97.40;;;;;;5052908;28;19968;-66
2022/10/04 13:49:41;;;;;;;;;;;23.90;97.70;;;;;;5055701;28;20426;-63
2022/10/04 13:58:00;;;;;;;;;;;24.20;97.80;;;;;;5052718;28;19967;-63
2022/10/04 14:00:35;;;;;;;;;;;24.10;97.50;;;;;;5055340;28;19971;-64
2022/10/04 14:03:13;;;;;;;;;;;24.10;97.50;;;;;;5054739;28;19964;-63
2022/10/04 14:05:59;;;;;;;;;;;24.20;97.40;;;;;;5055335;28;19971;-64
2022/10/04 14:08:39;;;;;;;;;;;24.30;97.30;;;;;;5054994;28;19967;-63
2022/10/04 14:11:20;;;;;;;;;;;24.30;97.60;;;;;;5054808;28;20425;-64
2022/10/04 14:13:56;;;;;;;;;;;24.60;97.80;;;;;;5055060;28;19963;-63
2022/10/04 14:16:44;;;;;;;;;;;24.40;97.40;;;;;;5063029;28;20062;-63
2022/10/04 14:19:27;;;;;;;;;;;23.90;96.60;;;;;;5069187;28;19966;-63
2022/10/04 14:22:12;;;;;;;;;;;23.40;97.50;;;;;;5072020;28;19967;-64
2022/10/04 14:24:57;;;;;;;;;;;22.50;98.50;;;;;;5073856;28;20068;-63
2022/10/04 14:27:38;;;;;;;;;;;22.00;99.50;;;;;;5073894;28;19966;-63
2022/10/04 14:30:17;;;;;;;;;;;21.50;99.90;;;;;;5073823;28;19966;-64
2022/10/04 14:33:00;;;;;;;;;;;21.10;99.90;;;;;;5073889;28;20320;-63
2022/10/04 14:35:30;;;;;;;;;;;21.00;99.90;;;;;;5040743;28;20315;-63
2022/10/04 14:38:19;;;;;;;;;;;20.90;99.90;;;;;;5073817;28;20076;-64
2022/10/04 14:41:16;;;;;;;;;;;21.00;99.90;;;;;;5073327;28;19962;-64
2022/10/04 14:44:03;;;;;;;;;;;21.20;99.90;;;;;;5073272;28;19966;-64
2022/10/04 14:46:37;;;;;;;;;;;21.60;99.90;;;;;;5056706;28;19966;-64
2022/10/04 14:49:11;;;;;;;;;;;22.00;99.90;;;;;;5057031;28;19963;-63
2022/10/04 14:51:44;;;;;;;;;;;22.30;99.90;;;;;;5054316;28;19963;-63
2022/10/04 14:54:15;;;;;;;;;;;22.50;99.90;;;;;;5047786;28;19977;-63
2022/10/04 14:56:52;;;;;;;;;;;22.60;99.90;;;;;;5054461;28;19967;-63
2022/10/04 14:59:32;;;;;;;;;;;22.60;99.90;;;;;;5053980;28;20077;-64
2022/10/04 15:02:18;;;;;;;;;;;22.80;99.90;;;;;;5054227;28;20383;-64
2022/10/04 15:05:04;;;;;;;;;;;22.90;99.90;;;;;;5053958;28;19966;-64
2022/10/04 15:07:35;;;;;;;;;;;22.40;99.90;;;;;;5054281;28;19970;-63
2022/10/04 15:10:06;;;;;;;;;;;22.10;99.90;;;;;;5053723;28;19969;-63
2022/10/04 15:12:43;;;;;;;;;;;21.70;99.90;;;;;;5054013;28;19969;-63
2022/10/04 15:15:35;;;;;;;;;;;21.00;99.90;;;;;;5056559;28;20013;-63
2022/10/04 15:18:05;;;;;;;;;;;20.40;99.90;;;;;;5061961;28;20016;-63
2022/10/04 15:20:37;;;;;;;;;;;20.10;99.90;;;;;;5046957;28;19974;-63
2022/10/04 15:23:11;;;;;;;;;;;19.80;99.90;;;;;;5047917;28;19962;-63
2022/10/04 15:25:40;;;;;;;;;;;19.60;99.90;;;;;;5054076;28;19966;-63
2022/10/04 15:28:14;;;;;;;;;;;19.40;99.90;;;;;;5053701;28;20435;-61
2022/10/04 15:30:52;;;;;;;;;;;19.20;99.90;;;;;;5053373;28;20013;-63